createdAt,value
2019-05-06T00:00:04.718Z,3.61
2019-05-06T00:00:34.134Z,3.63
2019-05-06T00:01:04.757Z,3.62
2019-05-06T00:01:34.281Z,3.61
2019-05-06T00:02:04.521Z,3.59
2019-05-06T00:02:34.206Z,3.59
2019-05-06T00:03:05.003Z,3.58
2019-05-06T00:03:34.411Z,3.57
2019-05-06T00:04:04.827Z,3.58
2019-05-06T00:04:34.166Z,3.55
2019-05-06T00:05:04.172Z,3.54
2019-05-06T00:05:34.139Z,3.54
2019-05-06T00:06:04.053Z,3.54
2019-05-06T00:06:34.540Z,3.52
2019-05-06T00:07:04.341Z,3.51
2019-05-06T00:07:36.255Z,3.50
2019-05-06T00:08:04.031Z,3.51
2019-05-06T00:08:34.589Z,3.50
2019-05-06T00:09:03.958Z,3.48
2019-05-06T00:09:34.840Z,3.45
2019-05-06T00:10:05.755Z,3.45
2019-05-06T00:10:34.220Z,3.45
2019-05-06T00:11:04.857Z,3.43
2019-05-06T00:11:34.583Z,3.42
2019-05-06T00:12:04.033Z,3.42
2019-05-06T00:12:33.918Z,3.41
2019-05-06T00:13:04.546Z,3.39
2019-05-06T00:13:34.307Z,3.38
2019-05-06T00:14:04.090Z,3.38
2019-05-06T00:14:34.047Z,3.38
2019-05-06T00:15:04.108Z,3.35
2019-05-06T00:15:34.385Z,3.38
2019-05-06T00:16:04.071Z,3.38
2019-05-06T00:16:34.619Z,3.36
2019-05-06T00:17:04.034Z,3.36
2019-05-06T00:17:34.880Z,3.38
2019-05-06T00:18:06.231Z,3.36
2019-05-06T00:18:34.118Z,3.38
2019-05-06T00:19:04.750Z,3.36
2019-05-06T00:19:34.195Z,3.36
2019-05-06T00:20:04.293Z,3.38
2019-05-06T00:20:34.739Z,3.38
2019-05-06T00:21:04.590Z,3.38
2019-05-06T00:21:35.470Z,3.38
2019-05-06T00:22:04.698Z,3.36
2019-05-06T00:22:34.409Z,3.39
2019-05-06T00:23:04.189Z,3.41
2019-05-06T00:23:35.311Z,3.38
2019-05-06T00:24:04.071Z,3.38
2019-05-06T00:24:34.741Z,3.38
2019-05-06T00:25:05.341Z,3.38
2019-05-06T00:25:34.821Z,3.41
2019-05-06T00:26:04.058Z,3.41
2019-05-06T00:26:34.110Z,3.41
2019-05-06T00:27:04.698Z,3.41
2019-05-06T00:27:34.265Z,3.41
2019-05-06T00:28:06.030Z,3.43
2019-05-06T00:28:36.738Z,3.42
2019-05-06T00:29:04.439Z,3.42
2019-05-06T00:29:34.894Z,3.42
2019-05-06T00:30:04.458Z,3.43
2019-05-06T00:30:34.504Z,3.48
2019-05-06T00:31:12.283Z,3.51
2019-05-06T00:31:34.504Z,3.51
2019-05-06T00:32:04.389Z,3.52
2019-05-06T00:32:34.774Z,3.55
2019-05-06T00:33:04.323Z,3.54
2019-05-06T00:33:34.168Z,3.55
2019-05-06T00:34:04.327Z,3.57
2019-05-06T00:34:34.195Z,3.57
2019-05-06T00:35:04.535Z,3.59
2019-05-06T00:35:34.297Z,3.61
2019-05-06T00:36:04.657Z,3.61
2019-05-06T00:36:34.424Z,3.58
2019-05-06T00:37:04.011Z,3.58
2019-05-06T00:37:34.864Z,3.59
2019-05-06T00:38:04.458Z,3.61
2019-05-06T00:38:34.173Z,3.58
2019-05-06T00:39:06.334Z,3.59
2019-05-06T00:39:33.903Z,3.61
2019-05-06T00:40:04.621Z,3.58
2019-05-06T00:40:34.089Z,3.58
2019-05-06T00:41:04.074Z,3.59
2019-05-06T00:41:36.220Z,3.59
2019-05-06T00:42:03.965Z,3.59
2019-05-06T00:42:34.596Z,3.62
2019-05-06T00:43:04.776Z,3.59
2019-05-06T00:43:34.465Z,3.58
2019-05-06T00:44:04.085Z,3.59
2019-05-06T00:44:34.609Z,3.57
2019-05-06T00:45:04.502Z,3.57
2019-05-06T00:45:34.163Z,3.55
2019-05-06T00:46:04.614Z,3.55
2019-05-06T00:46:34.389Z,3.52
2019-05-06T00:47:04.379Z,3.52
2019-05-06T00:47:34.133Z,3.50
2019-05-06T00:48:04.602Z,3.51
2019-05-06T00:48:34.223Z,3.48
2019-05-06T00:49:04.039Z,3.50
2019-05-06T00:49:36.685Z,3.48
2019-05-06T00:50:04.285Z,3.48
2019-05-06T00:50:34.833Z,3.47
2019-05-06T00:51:04.446Z,3.48
2019-05-06T00:51:34.066Z,3.45
2019-05-06T00:52:04.302Z,3.47
2019-05-06T00:52:34.066Z,3.43
2019-05-06T00:53:04.566Z,3.42
2019-05-06T00:53:34.685Z,3.47
2019-05-06T00:54:04.106Z,3.42
2019-05-06T00:54:34.116Z,3.43
2019-05-06T00:55:04.180Z,3.41
2019-05-06T00:55:34.003Z,3.43
2019-05-06T00:56:04.514Z,3.43
2019-05-06T00:56:34.246Z,3.42
2019-05-06T00:57:03.862Z,3.39
2019-05-06T00:57:34.066Z,3.39
2019-05-06T00:58:04.019Z,3.38
2019-05-06T00:58:34.718Z,3.38
2019-05-06T00:59:03.953Z,3.38
2019-05-06T00:59:34.531Z,3.35
2019-05-06T01:00:06.288Z,3.35
2019-05-06T01:00:33.912Z,3.34
2019-05-06T01:01:04.609Z,3.35
2019-05-06T01:01:34.424Z,3.32
2019-05-06T01:02:04.588Z,3.32
2019-05-06T01:02:34.271Z,3.30
2019-05-06T01:03:04.226Z,3.31
2019-05-06T01:03:34.678Z,3.28
2019-05-06T01:04:04.529Z,3.27
2019-05-06T01:04:34.057Z,3.27
2019-05-06T01:05:04.469Z,3.24
2019-05-06T01:05:33.960Z,3.24
2019-05-06T01:06:04.022Z,3.23
2019-05-06T01:06:34.554Z,3.23
2019-05-06T01:07:04.033Z,3.23
2019-05-06T01:07:34.445Z,3.20
2019-05-06T01:08:04.088Z,3.21
2019-05-06T01:08:34.813Z,3.20
2019-05-06T01:09:04.539Z,3.18
2019-05-06T01:09:34.419Z,3.15
2019-05-06T01:10:03.880Z,3.15
2019-05-06T01:10:36.462Z,3.15
2019-05-06T01:11:04.084Z,3.11
2019-05-06T01:11:34.571Z,3.15
2019-05-06T01:12:03.859Z,3.13
2019-05-06T01:12:34.612Z,3.14
2019-05-06T01:13:04.241Z,3.08
2019-05-06T01:13:35.073Z,3.10
2019-05-06T01:14:04.111Z,3.06
2019-05-06T01:14:35.168Z,3.04
2019-05-06T01:15:03.917Z,3.03
2019-05-06T01:15:34.338Z,3.06
2019-05-06T01:16:04.278Z,3.02
2019-05-06T01:16:34.505Z,3.02
2019-05-06T01:17:03.994Z,3.00
2019-05-06T01:17:33.956Z,2.96
2019-05-06T01:18:04.223Z,2.94
2019-05-06T01:18:34.148Z,2.94
2019-05-06T01:19:04.660Z,2.94
2019-05-06T01:19:34.263Z,2.92
2019-05-06T01:20:04.305Z,2.92
2019-05-06T01:20:34.090Z,2.92
2019-05-06T01:21:06.389Z,2.90
2019-05-06T01:21:34.270Z,2.92
2019-05-06T01:22:04.639Z,2.89
2019-05-06T01:22:34.212Z,2.87
2019-05-06T01:23:03.903Z,2.86
2019-05-06T01:23:34.249Z,2.86
2019-05-06T01:24:04.141Z,2.85
2019-05-06T01:24:34.456Z,2.83
2019-05-06T01:25:04.027Z,2.83
2019-05-06T01:25:34.566Z,2.79
2019-05-06T01:26:04.271Z,2.80
2019-05-06T01:26:34.036Z,2.80
2019-05-06T01:27:04.057Z,2.77
2019-05-06T01:27:33.917Z,2.77
2019-05-06T01:28:04.243Z,2.75
2019-05-06T01:28:34.184Z,2.76
2019-05-06T01:29:04.129Z,2.75
2019-05-06T01:29:34.747Z,2.72
2019-05-06T01:30:04.363Z,2.72
2019-05-06T01:30:33.924Z,2.71
2019-05-06T01:31:04.235Z,2.71
2019-05-06T01:31:42.623Z,2.69
2019-05-06T01:32:03.868Z,2.72
2019-05-06T01:32:34.510Z,2.69
2019-05-06T01:33:04.048Z,2.72
2019-05-06T01:33:35.028Z,2.71
2019-05-06T01:34:04.357Z,2.72
2019-05-06T01:34:34.163Z,2.72
2019-05-06T01:35:04.727Z,2.71
2019-05-06T01:35:35.175Z,2.71
2019-05-06T01:36:04.504Z,2.72
2019-05-06T01:36:34.413Z,2.72
2019-05-06T01:37:03.923Z,2.67
2019-05-06T01:37:34.695Z,2.72
2019-05-06T01:38:03.861Z,2.67
2019-05-06T01:38:34.113Z,2.71
2019-05-06T01:39:04.434Z,2.69
2019-05-06T01:39:34.206Z,2.67
2019-05-06T01:40:04.137Z,2.66
2019-05-06T01:40:34.576Z,2.66
2019-05-06T01:41:04.075Z,2.65
2019-05-06T01:41:34.013Z,2.65
2019-05-06T01:42:06.758Z,2.65
2019-05-06T01:42:34.493Z,2.66
2019-05-06T01:43:03.939Z,2.67
2019-05-06T01:43:34.649Z,2.63
2019-05-06T01:44:04.289Z,2.63
2019-05-06T01:44:34.056Z,2.63
2019-05-06T01:45:04.698Z,2.65
2019-05-06T01:45:34.844Z,2.60
2019-05-06T01:46:04.674Z,2.59
2019-05-06T01:46:34.119Z,2.60
2019-05-06T01:47:03.887Z,2.60
2019-05-06T01:47:34.596Z,2.59
2019-05-06T01:48:04.049Z,2.58
2019-05-06T01:48:33.918Z,2.58
2019-05-06T01:49:04.328Z,2.56
2019-05-06T01:49:34.167Z,2.53
2019-05-06T01:50:04.459Z,2.53
2019-05-06T01:50:34.482Z,2.53
2019-05-06T01:51:03.859Z,2.55
2019-05-06T01:51:34.748Z,2.55
2019-05-06T01:52:04.034Z,2.55
2019-05-06T01:52:36.804Z,2.59
2019-05-06T01:53:04.957Z,2.56
2019-05-06T01:53:33.990Z,2.53
2019-05-06T01:54:04.010Z,2.55
2019-05-06T01:54:34.438Z,2.55
2019-05-06T01:55:04.801Z,2.53
2019-05-06T01:55:34.339Z,2.53
2019-05-06T01:56:03.861Z,2.55
2019-05-06T01:56:33.917Z,2.52
2019-05-06T01:57:04.376Z,2.52
2019-05-06T01:57:33.918Z,2.52
2019-05-06T01:58:05.079Z,2.52
2019-05-06T01:58:33.924Z,2.52
2019-05-06T01:59:04.518Z,2.49
2019-05-06T01:59:34.244Z,2.51
2019-05-06T02:00:04.794Z,2.49
2019-05-06T02:00:34.402Z,2.51
2019-05-06T02:01:04.057Z,2.51
2019-05-06T02:01:34.339Z,2.51
2019-05-06T02:02:04.444Z,2.48
2019-05-06T02:02:34.314Z,2.52
2019-05-06T02:03:06.250Z,2.51
2019-05-06T02:03:34.693Z,2.48
2019-05-06T02:04:04.375Z,2.49
2019-05-06T02:04:33.943Z,2.49
2019-05-06T02:05:04.719Z,2.48
2019-05-06T02:05:33.929Z,2.48
2019-05-06T02:06:04.817Z,2.49
2019-05-06T02:06:34.347Z,2.48
2019-05-06T02:07:04.037Z,2.48
2019-05-06T02:07:34.906Z,2.48
2019-05-06T02:08:04.092Z,2.48
2019-05-06T02:08:33.953Z,2.48
2019-05-06T02:09:04.511Z,2.46
2019-05-06T02:09:34.345Z,2.46
2019-05-06T02:10:04.043Z,2.42
2019-05-06T02:10:34.630Z,2.44
2019-05-06T02:11:04.051Z,2.41
2019-05-06T02:11:33.951Z,2.41
2019-05-06T02:12:04.520Z,2.41
2019-05-06T02:12:34.255Z,2.39
2019-05-06T02:13:03.999Z,2.38
2019-05-06T02:13:36.223Z,2.37
2019-05-06T02:14:04.726Z,2.35
2019-05-06T02:14:34.334Z,2.37
2019-05-06T02:15:04.115Z,2.37
2019-05-06T02:15:34.600Z,2.35
2019-05-06T02:16:03.984Z,2.35
2019-05-06T02:16:34.374Z,2.32
2019-05-06T02:17:03.914Z,2.32
2019-05-06T02:17:34.491Z,2.34
2019-05-06T02:18:04.163Z,2.34
2019-05-06T02:18:34.034Z,2.34
2019-05-06T02:19:04.246Z,2.34
2019-05-06T02:19:34.682Z,2.34
2019-05-06T02:20:04.235Z,2.34
2019-05-06T02:20:34.138Z,2.32
2019-05-06T02:21:05.409Z,2.31
2019-05-06T02:21:33.931Z,2.32
2019-05-06T02:22:04.298Z,2.32
2019-05-06T02:22:34.562Z,2.32
2019-05-06T02:23:04.221Z,2.32
2019-05-06T02:23:33.960Z,2.32
2019-05-06T02:24:06.182Z,2.34
2019-05-06T02:24:33.920Z,2.32
2019-05-06T02:25:04.422Z,2.32
2019-05-06T02:25:34.228Z,2.31
2019-05-06T02:26:04.825Z,2.31
2019-05-06T02:26:34.401Z,2.31
2019-05-06T02:27:04.468Z,2.31
2019-05-06T02:27:34.138Z,2.29
2019-05-06T02:28:04.054Z,2.28
2019-05-06T02:28:34.441Z,2.28
2019-05-06T02:29:04.315Z,2.29
2019-05-06T02:29:34.184Z,2.29
2019-05-06T02:30:05.363Z,2.28
2019-05-06T02:30:36.428Z,2.31
2019-05-06T02:31:05.302Z,2.27
2019-05-06T02:31:35.276Z,2.27
2019-05-06T02:32:16.966Z,2.28
2019-05-06T02:32:35.846Z,2.28
2019-05-06T02:33:04.437Z,2.28
2019-05-06T02:33:35.524Z,2.27
2019-05-06T02:34:05.053Z,2.27
2019-05-06T02:34:36.816Z,2.25
2019-05-06T02:35:05.103Z,2.27
2019-05-06T02:35:34.675Z,2.28
2019-05-06T02:36:06.374Z,2.24
2019-05-06T02:36:34.466Z,2.27
2019-05-06T02:37:06.215Z,2.27
2019-05-06T02:37:34.926Z,2.22
2019-05-06T02:38:04.766Z,2.21
2019-05-06T02:38:44.412Z,2.21
2019-05-06T02:39:03.873Z,2.21
2019-05-06T02:39:34.322Z,2.18
2019-05-06T02:40:04.392Z,2.18
2019-05-06T02:40:33.925Z,2.17
2019-05-06T02:41:03.901Z,2.17
2019-05-06T02:41:34.062Z,2.16
2019-05-06T02:42:04.234Z,2.16
2019-05-06T02:42:33.976Z,2.16
2019-05-06T02:43:03.907Z,2.16
2019-05-06T02:43:34.695Z,2.14
2019-05-06T02:44:03.902Z,2.14
2019-05-06T02:44:33.932Z,2.11
2019-05-06T02:45:06.349Z,2.10
2019-05-06T02:45:33.947Z,2.08
2019-05-06T02:46:04.330Z,2.07
2019-05-06T02:46:34.085Z,2.06
2019-05-06T02:47:03.876Z,2.04
2019-05-06T02:47:34.393Z,2.04
2019-05-06T02:48:04.556Z,2.03
2019-05-06T02:48:33.927Z,2.06
2019-05-06T02:49:04.095Z,2.03
2019-05-06T02:49:33.929Z,2.03
2019-05-06T02:50:04.594Z,2.04
2019-05-06T02:50:34.040Z,2.03
2019-05-06T02:51:04.126Z,2.03
2019-05-06T02:51:33.930Z,1.99
2019-05-06T02:52:03.872Z,2.00
2019-05-06T02:52:33.966Z,1.99
2019-05-06T02:53:03.887Z,1.97
2019-05-06T02:53:34.008Z,1.96
2019-05-06T02:54:03.873Z,1.96
2019-05-06T02:54:34.622Z,1.94
2019-05-06T02:55:06.328Z,1.93
2019-05-06T02:55:36.456Z,1.94
2019-05-06T02:56:04.417Z,1.93
2019-05-06T02:56:33.936Z,1.90
2019-05-06T02:57:04.438Z,1.89
2019-05-06T02:57:34.094Z,1.89
2019-05-06T02:58:03.892Z,1.89
2019-05-06T02:58:33.939Z,1.86
2019-05-06T02:59:04.157Z,1.83
2019-05-06T02:59:33.925Z,1.83
2019-05-06T03:00:04.972Z,1.83
2019-05-06T03:00:33.934Z,1.84
2019-05-06T03:01:04.017Z,1.81
2019-05-06T03:01:34.235Z,1.80
2019-05-06T03:02:03.894Z,1.77
2019-05-06T03:02:42.359Z,1.77
2019-05-06T03:03:03.895Z,1.77
2019-05-06T03:03:34.146Z,1.77
2019-05-06T03:04:04.565Z,1.74
2019-05-06T03:04:33.927Z,1.74
2019-05-06T03:05:04.364Z,1.73
2019-05-06T03:05:33.929Z,1.72
2019-05-06T03:06:06.263Z,1.69
2019-05-06T03:06:34.085Z,1.69
2019-05-06T03:07:03.995Z,1.69
2019-05-06T03:07:37.021Z,1.67
2019-05-06T03:08:03.889Z,1.67
2019-05-06T03:08:33.946Z,1.65
2019-05-06T03:09:03.878Z,1.63
2019-05-06T03:09:34.165Z,1.62
2019-05-06T03:10:04.251Z,1.59
2019-05-06T03:10:33.945Z,1.59
2019-05-06T03:11:04.372Z,1.58
2019-05-06T03:11:33.940Z,1.56
2019-05-06T03:12:04.092Z,1.56
2019-05-06T03:12:33.945Z,1.52
2019-05-06T03:13:03.884Z,1.52
2019-05-06T03:13:34.333Z,1.53
2019-05-06T03:14:03.881Z,1.51
2019-05-06T03:14:34.733Z,1.49
2019-05-06T03:15:03.873Z,1.46
2019-05-06T03:15:34.433Z,1.45
2019-05-06T03:16:05.714Z,1.42
2019-05-06T03:16:36.198Z,1.43
2019-05-06T03:17:04.069Z,1.42
2019-05-06T03:17:33.932Z,1.42
2019-05-06T03:18:03.895Z,1.39
2019-05-06T03:18:34.086Z,1.38
2019-05-06T03:19:04.307Z,1.39
2019-05-06T03:19:34.316Z,1.36
2019-05-06T03:20:04.470Z,1.35
2019-05-06T03:20:35.881Z,1.34
2019-05-06T03:21:04.163Z,1.34
2019-05-06T03:22:03.890Z,1.35
2019-05-06T03:22:34.582Z,1.34
2019-05-06T03:23:04.055Z,1.34
2019-05-06T03:23:35.047Z,1.35
2019-05-06T03:24:07.300Z,1.34
2019-05-06T03:24:33.943Z,1.35
2019-05-06T03:25:06.796Z,1.34
2019-05-06T03:25:33.933Z,1.32
2019-05-06T03:26:06.453Z,1.32
2019-05-06T03:26:33.937Z,1.34
2019-05-06T03:27:06.194Z,1.34
2019-05-06T03:27:33.940Z,1.31
2019-05-06T03:28:04.317Z,1.32
2019-05-06T03:28:33.940Z,1.32
2019-05-06T03:29:03.891Z,1.32
2019-05-06T03:29:33.933Z,1.30
2019-05-06T03:30:04.321Z,1.30
2019-05-06T03:30:36.099Z,1.30
2019-05-06T03:31:06.572Z,1.27
2019-05-06T03:31:36.319Z,1.28
2019-05-06T03:32:06.708Z,1.30
2019-05-06T03:32:38.073Z,1.30
2019-05-06T03:33:49.485Z,1.28
2019-05-06T03:34:24.207Z,1.32
2019-05-06T03:34:51.947Z,1.31
2019-05-06T03:35:24.455Z,1.30
2019-05-06T03:35:43.913Z,1.31
2019-05-06T03:36:14.003Z,1.30
2019-05-06T03:36:40.223Z,1.31
2019-05-06T03:37:07.154Z,1.32
2019-05-06T03:37:36.514Z,1.34
2019-05-06T03:38:04.049Z,1.32
2019-05-06T03:38:33.944Z,1.35
2019-05-06T03:39:03.878Z,1.34
2019-05-06T03:39:34.059Z,1.38
2019-05-06T03:40:04.025Z,1.34
2019-05-06T03:40:36.591Z,1.34
2019-05-06T03:41:03.878Z,1.35
2019-05-06T03:41:34.095Z,1.35
2019-05-06T03:42:04.736Z,1.34
2019-05-06T03:42:33.932Z,1.35
2019-05-06T03:43:03.893Z,1.34
2019-05-06T03:43:34.149Z,1.34
2019-05-06T03:44:03.879Z,1.35
2019-05-06T03:44:33.942Z,1.32
2019-05-06T03:45:04.287Z,1.32
2019-05-06T03:45:33.951Z,1.32
2019-05-06T03:46:04.371Z,1.32
2019-05-06T03:46:33.944Z,1.31
2019-05-06T03:47:05.628Z,1.34
2019-05-06T03:47:34.646Z,1.32
2019-05-06T03:48:06.401Z,1.34
2019-05-06T03:48:33.937Z,1.32
2019-05-06T03:49:04.029Z,1.32
2019-05-06T03:49:34.043Z,1.34
2019-05-06T03:50:04.757Z,1.36
2019-05-06T03:50:33.943Z,1.35
2019-05-06T03:51:04.281Z,1.34
2019-05-06T03:51:34.470Z,1.32
2019-05-06T03:52:03.912Z,1.34
2019-05-06T03:52:34.380Z,1.36
2019-05-06T03:53:03.885Z,1.34
2019-05-06T03:53:33.937Z,1.35
2019-05-06T03:54:03.907Z,1.34
2019-05-06T03:54:34.437Z,1.35
2019-05-06T03:55:04.221Z,1.35
2019-05-06T03:55:34.288Z,1.35
2019-05-06T03:56:03.916Z,1.35
2019-05-06T03:56:34.053Z,1.35
2019-05-06T03:57:03.922Z,1.34
2019-05-06T03:57:35.899Z,1.34
2019-05-06T03:58:04.089Z,1.34
2019-05-06T03:58:36.431Z,1.31
2019-05-06T03:59:03.922Z,1.31
2019-05-06T03:59:33.942Z,1.31
2019-05-06T04:00:04.862Z,1.31
2019-05-06T04:00:33.977Z,1.31
2019-05-06T04:01:04.023Z,1.30
2019-05-06T04:01:33.942Z,1.28
2019-05-06T04:02:05.147Z,1.28
2019-05-06T04:02:34.056Z,1.30
2019-05-06T04:03:03.889Z,1.27
2019-05-06T04:03:46.699Z,1.28
2019-05-06T04:04:04.014Z,1.28
2019-05-06T04:04:34.020Z,1.27
2019-05-06T04:05:04.389Z,1.27
2019-05-06T04:05:33.939Z,1.27
2019-05-06T04:06:04.616Z,1.25
2019-05-06T04:06:33.962Z,1.27
2019-05-06T04:07:03.898Z,1.25
2019-05-06T04:07:34.220Z,1.25
2019-05-06T04:08:04.159Z,1.27
2019-05-06T04:08:34.422Z,1.25
2019-05-06T04:09:06.174Z,1.24
2019-05-06T04:09:36.723Z,1.25
2019-05-06T04:10:04.082Z,1.24
2019-05-06T04:10:36.891Z,1.27
2019-05-06T04:11:03.894Z,1.27
2019-05-06T04:11:36.294Z,1.28
2019-05-06T04:12:03.885Z,1.27
2019-05-06T04:12:33.940Z,1.27
2019-05-06T04:13:04.339Z,1.31
2019-05-06T04:13:33.943Z,1.31
2019-05-06T04:14:03.889Z,1.32
2019-05-06T04:14:34.154Z,1.36
2019-05-06T04:15:04.409Z,1.36
2019-05-06T04:15:34.222Z,1.43
2019-05-06T04:16:04.099Z,1.46
2019-05-06T04:16:33.951Z,1.49
2019-05-06T04:17:03.937Z,1.55
2019-05-06T04:17:33.941Z,1.59
2019-05-06T04:18:04.166Z,1.63
2019-05-06T04:18:33.944Z,1.67
2019-05-06T04:19:04.299Z,1.73
2019-05-06T04:19:36.405Z,1.76
2019-05-06T04:20:04.227Z,1.80
2019-05-06T04:20:34.440Z,1.87
2019-05-06T04:21:08.222Z,1.92
2019-05-06T04:21:33.947Z,1.96
2019-05-06T04:22:04.067Z,2.00
2019-05-06T04:22:33.973Z,2.04
2019-05-06T04:23:06.259Z,2.08
2019-05-06T04:23:33.948Z,2.14
2019-05-06T04:24:04.388Z,2.18
2019-05-06T04:24:33.950Z,2.20
2019-05-06T04:25:04.333Z,2.21
2019-05-06T04:25:34.104Z,2.22
2019-05-06T04:26:03.919Z,2.25
2019-05-06T04:26:33.948Z,2.24
2019-05-06T04:27:03.891Z,2.22
2019-05-06T04:27:34.032Z,2.22
2019-05-06T04:28:03.882Z,2.18
2019-05-06T04:28:34.324Z,2.20
2019-05-06T04:29:04.187Z,2.18
2019-05-06T04:29:35.555Z,2.18
2019-05-06T04:30:06.199Z,2.17
2019-05-06T04:30:33.943Z,2.17
2019-05-06T04:31:03.886Z,2.17
2019-05-06T04:31:34.017Z,2.17
2019-05-06T04:32:03.886Z,2.20
2019-05-06T04:32:34.237Z,2.21
2019-05-06T04:33:03.892Z,2.25
2019-05-06T04:33:33.958Z,2.27
2019-05-06T04:34:12.574Z,2.29
2019-05-06T04:34:33.948Z,2.31
2019-05-06T04:35:04.505Z,2.32
2019-05-06T04:35:34.058Z,2.34
2019-05-06T04:36:04.003Z,2.32
2019-05-06T04:36:33.963Z,2.35
2019-05-06T04:37:03.888Z,2.37
2019-05-06T04:37:34.222Z,2.38
2019-05-06T04:38:03.891Z,2.42
2019-05-06T04:38:34.172Z,2.41
2019-05-06T04:39:04.411Z,2.45
2019-05-06T04:39:33.943Z,2.45
2019-05-06T04:40:04.634Z,2.49
2019-05-06T04:40:36.342Z,2.53
2019-05-06T04:41:03.901Z,2.55
2019-05-06T04:41:34.404Z,2.62
2019-05-06T04:42:04.008Z,2.69
2019-05-06T04:42:34.554Z,2.69
2019-05-06T04:43:03.914Z,2.75
2019-05-06T04:43:34.105Z,2.79
2019-05-06T04:44:03.900Z,2.85
2019-05-06T04:44:33.948Z,2.90
2019-05-06T04:45:04.509Z,2.92
2019-05-06T04:45:33.969Z,2.97
2019-05-06T04:46:03.923Z,2.96
2019-05-06T04:46:34.967Z,3.00
2019-05-06T04:47:05.319Z,2.99
2019-05-06T04:47:33.963Z,2.97
2019-05-06T04:48:03.990Z,2.97
2019-05-06T04:48:33.964Z,2.94
2019-05-06T04:49:04.258Z,2.93
2019-05-06T04:49:33.962Z,2.92
2019-05-06T04:50:05.033Z,2.89
2019-05-06T04:50:33.954Z,2.86
2019-05-06T04:51:06.280Z,2.85
2019-05-06T04:51:36.736Z,2.85
2019-05-06T04:52:03.904Z,2.80
2019-05-06T04:52:34.447Z,2.77
2019-05-06T04:53:05.091Z,2.75
2019-05-06T04:53:34.218Z,2.75
2019-05-06T04:54:04.276Z,2.75
2019-05-06T04:54:34.035Z,2.72
2019-05-06T04:55:04.048Z,2.72
2019-05-06T04:55:33.954Z,2.69
2019-05-06T04:56:04.356Z,2.69
2019-05-06T04:56:34.039Z,2.67
2019-05-06T04:57:05.021Z,2.69
2019-05-06T04:57:33.975Z,2.67
2019-05-06T04:58:04.164Z,2.67
2019-05-06T04:58:33.953Z,2.65
2019-05-06T04:59:06.185Z,2.65
2019-05-06T04:59:33.950Z,2.66
2019-05-06T05:00:04.401Z,2.67
2019-05-06T05:00:33.976Z,2.66
2019-05-06T05:01:04.349Z,2.69
2019-05-06T05:01:36.439Z,2.69
2019-05-06T05:02:03.892Z,2.67
2019-05-06T05:02:34.022Z,2.71
2019-05-06T05:03:03.911Z,2.69
2019-05-06T05:03:33.963Z,2.69
2019-05-06T05:04:03.908Z,2.69
2019-05-06T05:04:36.681Z,2.67
2019-05-06T05:05:04.430Z,2.69
2019-05-06T05:05:33.954Z,2.71
2019-05-06T05:06:05.676Z,2.73
2019-05-06T05:06:33.956Z,2.73
2019-05-06T05:07:03.990Z,2.75
2019-05-06T05:07:33.961Z,2.79
2019-05-06T05:08:03.908Z,2.75
2019-05-06T05:08:33.965Z,2.75
2019-05-06T05:09:04.020Z,2.77
2019-05-06T05:09:33.955Z,2.77
2019-05-06T05:10:03.901Z,2.76
2019-05-06T05:10:33.963Z,2.75
2019-05-06T05:11:03.950Z,2.79
2019-05-06T05:11:33.964Z,2.80
2019-05-06T05:12:06.180Z,2.80
2019-05-06T05:12:33.967Z,2.80
2019-05-06T05:13:03.930Z,2.85
2019-05-06T05:13:33.954Z,2.87
2019-05-06T05:14:03.893Z,2.87
2019-05-06T05:14:33.994Z,2.92
2019-05-06T05:15:03.895Z,2.92
2019-05-06T05:15:33.952Z,2.97
2019-05-06T05:16:03.895Z,2.99
2019-05-06T05:16:33.948Z,3.04
2019-05-06T05:17:03.891Z,3.06
2019-05-06T05:17:34.041Z,3.13
2019-05-06T05:18:03.897Z,3.17
2019-05-06T05:18:33.957Z,3.20
2019-05-06T05:19:03.898Z,3.23
2019-05-06T05:19:34.040Z,3.25
2019-05-06T05:20:03.893Z,3.31
2019-05-06T05:20:37.462Z,3.30
2019-05-06T05:21:03.894Z,3.32
2019-05-06T05:21:33.994Z,3.36
2019-05-06T05:22:03.896Z,3.36
2019-05-06T05:22:36.167Z,3.39
2019-05-06T05:23:03.896Z,3.42
2019-05-06T05:23:34.036Z,3.42
2019-05-06T05:24:03.894Z,3.43
2019-05-06T05:24:33.953Z,3.43
2019-05-06T05:25:03.902Z,3.47
2019-05-06T05:25:34.107Z,3.47
2019-05-06T05:26:03.915Z,3.48
2019-05-06T05:26:33.956Z,3.48
2019-05-06T05:27:03.902Z,3.50
2019-05-06T05:27:33.954Z,3.52
2019-05-06T05:28:03.899Z,3.55
2019-05-06T05:28:33.963Z,3.55
2019-05-06T05:29:03.899Z,3.54
2019-05-06T05:29:33.962Z,3.59
2019-05-06T05:30:03.924Z,3.59
2019-05-06T05:30:33.950Z,3.63
2019-05-06T05:31:03.900Z,3.66
2019-05-06T05:31:33.958Z,3.65
2019-05-06T05:32:03.892Z,3.69
2019-05-06T05:32:33.955Z,3.72
2019-05-06T05:33:06.191Z,3.72
2019-05-06T05:33:33.952Z,3.73
2019-05-06T05:34:04.016Z,3.76
2019-05-06T05:34:39.736Z,3.79
2019-05-06T05:35:03.896Z,3.82
2019-05-06T05:35:33.969Z,3.83
2019-05-06T05:36:04.020Z,3.88
2019-05-06T05:36:33.953Z,3.86
2019-05-06T05:37:03.900Z,3.90
2019-05-06T05:37:33.955Z,3.93
2019-05-06T05:38:03.954Z,3.96
2019-05-06T05:38:33.953Z,3.97
2019-05-06T05:39:03.902Z,3.97
2019-05-06T05:39:33.960Z,4.01
2019-05-06T05:40:03.922Z,4.03
2019-05-06T05:40:33.952Z,4.06
2019-05-06T05:41:03.911Z,4.07
2019-05-06T05:41:33.959Z,4.10
2019-05-06T05:42:03.907Z,4.13
2019-05-06T05:42:33.964Z,4.17
2019-05-06T05:43:03.901Z,4.16
2019-05-06T05:43:39.288Z,4.20
2019-05-06T05:44:03.898Z,4.22
2019-05-06T05:44:34.066Z,4.22
2019-05-06T05:45:03.900Z,4.26
2019-05-06T05:45:33.996Z,4.27
2019-05-06T05:46:03.900Z,4.30
2019-05-06T05:46:33.993Z,4.37
2019-05-06T05:47:04.044Z,4.37
2019-05-06T05:47:33.956Z,4.38
2019-05-06T05:48:03.897Z,4.41
2019-05-06T05:48:34.039Z,4.45
2019-05-06T05:49:03.898Z,4.45
2019-05-06T05:49:33.964Z,4.48
2019-05-06T05:50:03.902Z,4.49
2019-05-06T05:50:33.983Z,4.52
2019-05-06T05:51:03.903Z,4.54
2019-05-06T05:51:33.970Z,4.55
2019-05-06T05:52:03.902Z,4.56
2019-05-06T05:52:34.034Z,4.58
2019-05-06T05:53:03.911Z,4.59
2019-05-06T05:53:33.965Z,4.59
2019-05-06T05:54:06.321Z,4.58
2019-05-06T05:54:33.960Z,4.58
2019-05-06T05:55:03.920Z,4.58
2019-05-06T05:55:33.961Z,4.59
2019-05-06T05:56:03.906Z,4.59
2019-05-06T05:56:33.957Z,4.62
2019-05-06T05:57:03.904Z,4.65
2019-05-06T05:57:33.971Z,4.66
2019-05-06T05:58:03.920Z,4.66
2019-05-06T05:58:33.963Z,4.71
2019-05-06T05:59:03.902Z,4.71
2019-05-06T05:59:33.971Z,4.69
2019-05-06T06:00:04.138Z,4.71
2019-05-06T06:00:33.959Z,4.71
2019-05-06T06:01:04.278Z,4.71
2019-05-06T06:01:33.957Z,4.73
2019-05-06T06:02:04.076Z,4.72
2019-05-06T06:02:33.963Z,4.71
2019-05-06T06:03:06.704Z,4.69
2019-05-06T06:03:33.960Z,4.73
2019-05-06T06:04:03.902Z,4.72
2019-05-06T06:04:36.439Z,4.75
2019-05-06T06:05:04.197Z,4.75
2019-05-06T06:05:33.957Z,4.76
2019-05-06T06:06:03.906Z,4.77
2019-05-06T06:06:33.965Z,4.76
2019-05-06T06:07:03.927Z,4.76
2019-05-06T06:07:33.965Z,4.75
2019-05-06T06:08:04.060Z,4.76
2019-05-06T06:08:36.707Z,4.76
2019-05-06T06:09:03.919Z,4.77
2019-05-06T06:09:33.981Z,4.80
2019-05-06T06:10:03.899Z,4.82
2019-05-06T06:10:33.966Z,4.82
2019-05-06T06:11:04.336Z,4.82
2019-05-06T06:11:34.061Z,4.79
2019-05-06T06:12:03.904Z,4.82
2019-05-06T06:12:33.957Z,4.80
2019-05-06T06:13:03.915Z,4.83
2019-05-06T06:13:34.038Z,4.86
2019-05-06T06:14:03.907Z,4.83
2019-05-06T06:14:33.964Z,4.83
2019-05-06T06:15:06.569Z,4.83
2019-05-06T06:15:33.988Z,4.85
2019-05-06T06:16:03.900Z,4.82
2019-05-06T06:16:34.058Z,4.86
2019-05-06T06:17:03.902Z,4.90
2019-05-06T06:17:33.974Z,4.92
2019-05-06T06:18:03.898Z,4.94
2019-05-06T06:18:33.965Z,4.96
2019-05-06T06:19:03.906Z,4.96
2019-05-06T06:19:33.961Z,4.99
2019-05-06T06:20:03.908Z,5.04
2019-05-06T06:20:33.978Z,5.07
2019-05-06T06:21:17.539Z,5.10
2019-05-06T06:21:33.963Z,5.12
2019-05-06T06:22:03.906Z,5.12
2019-05-06T06:22:33.973Z,5.09
2019-05-06T06:23:03.904Z,5.09
2019-05-06T06:23:33.969Z,5.10
2019-05-06T06:24:03.906Z,5.14
2019-05-06T06:24:33.971Z,5.16
2019-05-06T06:25:04.419Z,5.20
2019-05-06T06:25:36.355Z,5.24
2019-05-06T06:26:04.184Z,5.26
2019-05-06T06:26:33.975Z,5.34
2019-05-06T06:27:03.918Z,5.44
2019-05-06T06:27:33.967Z,5.51
2019-05-06T06:28:03.912Z,5.59
2019-05-06T06:28:33.967Z,5.61
2019-05-06T06:29:03.913Z,5.61
2019-05-06T06:29:33.977Z,5.59
2019-05-06T06:30:04.068Z,5.55
2019-05-06T06:30:33.987Z,5.51
2019-05-06T06:31:03.911Z,5.48
2019-05-06T06:31:33.976Z,5.51
2019-05-06T06:32:03.990Z,5.55
2019-05-06T06:32:33.967Z,5.59
2019-05-06T06:33:03.911Z,5.63
2019-05-06T06:33:33.965Z,5.63
2019-05-06T06:34:03.919Z,5.66
2019-05-06T06:34:33.970Z,5.66
2019-05-06T06:35:10.473Z,5.70
2019-05-06T06:35:33.978Z,5.75
2019-05-06T06:36:06.201Z,5.80
2019-05-06T06:36:34.110Z,5.82
2019-05-06T06:37:03.913Z,5.85
2019-05-06T06:37:33.975Z,5.86
2019-05-06T06:38:03.917Z,5.89
2019-05-06T06:38:33.985Z,5.93
2019-05-06T06:39:03.917Z,5.96
2019-05-06T06:39:33.970Z,6.06
2019-05-06T06:40:03.943Z,6.13